createdAt,value
2017-04-15T00:00:52.425Z,25.90
2017-04-15T00:01:51.713Z,27.60
2017-04-15T00:02:51.069Z,29.18
2017-04-15T00:03:50.432Z,26.18
2017-04-15T00:04:49.743Z,24.98
2017-04-15T00:05:49.057Z,26.43
2017-04-15T00:06:48.336Z,26.67
2017-04-15T00:07:47.892Z,28.70
2017-04-15T00:08:47.166Z,27.98
2017-04-15T00:09:46.539Z,27.63
2017-04-15T00:17:42.962Z,27.22
2017-04-15T00:18:42.292Z,26.75
2017-04-15T00:19:42.280Z,25.60
2017-04-15T00:20:41.573Z,27.58
2017-04-15T00:21:40.816Z,27.67
2017-04-15T00:22:40.603Z,28.20
2017-04-15T00:23:39.987Z,25.30
2017-04-15T00:24:40.041Z,25.87
2017-04-15T00:25:39.351Z,26.40
2017-04-15T00:26:38.679Z,24.58
2017-04-15T00:27:37.969Z,26.78
2017-04-15T00:28:37.284Z,24.43
2017-04-15T00:29:36.545Z,27.02
2017-04-15T00:30:35.832Z,26.63
2017-04-15T00:31:35.100Z,26.78
2017-04-15T00:32:34.448Z,23.48
2017-04-15T00:33:33.787Z,25.57
2017-04-15T00:34:33.084Z,24.85
2017-04-15T00:35:32.318Z,26.23
2017-04-15T00:36:31.584Z,24.67
2017-04-15T00:37:30.954Z,24.30
2017-04-15T00:38:31.031Z,23.52
2017-04-15T00:39:30.376Z,24.25
2017-04-15T00:40:29.680Z,24.05
2017-04-15T00:41:28.969Z,24.82
2017-04-15T00:42:28.234Z,23.87
2017-04-15T00:43:27.547Z,23.92
2017-04-15T00:44:26.852Z,25.82
2017-04-15T00:45:26.145Z,23.80
2017-04-15T00:46:25.443Z,23.70
2017-04-15T00:47:24.728Z,24.40
2017-04-15T00:48:24.043Z,24.65
2017-04-15T00:49:23.308Z,22.08
2017-04-15T00:50:22.612Z,25.85
2017-04-15T00:51:21.896Z,24.13
2017-04-15T00:52:21.254Z,23.48
2017-04-15T00:53:20.562Z,24.63
2017-04-15T00:54:19.850Z,24.90
2017-04-15T00:55:19.125Z,23.65
2017-04-15T00:56:18.401Z,25.58
2017-04-15T00:57:17.684Z,25.45
2017-04-15T00:58:16.997Z,24.12
2017-04-15T00:59:16.365Z,24.45
2017-04-15T01:00:15.704Z,24.67
2017-04-15T01:01:14.967Z,27.33
2017-04-15T01:02:14.359Z,22.52
2017-04-15T01:03:13.657Z,23.42
2017-04-15T01:04:12.995Z,24.07
2017-04-15T01:05:12.255Z,22.50
2017-04-15T01:06:11.520Z,22.58
2017-04-15T01:07:10.855Z,25.82
2017-04-15T01:08:10.150Z,23.78
2017-04-15T01:09:09.504Z,22.88
2017-04-15T01:10:08.798Z,22.98
2017-04-15T01:11:08.830Z,24.80
2017-04-15T01:12:08.131Z,23.32
2017-04-15T01:13:07.463Z,25.67
2017-04-15T01:14:06.775Z,25.32
2017-04-15T01:15:06.075Z,26.00
2017-04-15T01:16:05.410Z,23.18
2017-04-15T01:17:04.722Z,22.83
2017-04-15T01:18:04.046Z,26.68
2017-04-15T01:19:03.356Z,23.17
2017-04-15T01:20:02.661Z,24.13
2017-04-15T01:21:02.710Z,30.05
2017-04-15T01:22:02.063Z,28.02
2017-04-15T01:23:02.131Z,24.90
2017-04-15T01:24:01.476Z,26.85
2017-04-15T01:25:00.790Z,26.03
2017-04-15T01:26:00.044Z,27.93
2017-04-15T01:26:59.365Z,27.73
2017-04-15T01:27:58.767Z,29.95
2017-04-15T01:28:58.384Z,28.57
2017-04-15T01:29:57.685Z,27.67
2017-04-15T01:30:56.977Z,27.23
2017-04-15T01:31:56.308Z,23.97
2017-04-15T01:32:55.586Z,30.47
2017-04-15T01:33:55.563Z,26.82
2017-04-15T01:34:54.862Z,27.90
2017-04-15T01:35:54.174Z,31.12
2017-04-15T01:36:53.449Z,30.65
2017-04-15T01:37:52.774Z,27.60
2017-04-15T01:38:52.058Z,31.93
2017-04-15T01:39:51.396Z,31.68
2017-04-15T01:40:50.717Z,29.02
2017-04-15T01:41:50.018Z,34.37
2017-04-15T01:42:49.398Z,30.20
2017-04-15T01:43:48.658Z,28.75
2017-04-15T01:44:48.022Z,29.53
2017-04-15T01:45:47.303Z,32.73
2017-04-15T01:46:46.590Z,31.43
2017-04-15T01:47:45.863Z,28.40
2017-04-15T01:48:45.111Z,29.93
2017-04-15T01:49:44.415Z,32.57
2017-04-15T01:50:43.692Z,29.92
2017-04-15T01:51:43.241Z,27.80
2017-04-15T01:52:42.593Z,29.85
2017-04-15T01:53:41.896Z,28.60
2017-04-15T01:54:41.191Z,31.13
2017-04-15T01:55:41.182Z,32.42
2017-04-15T01:56:40.484Z,32.03
2017-04-15T01:57:39.788Z,32.42
2017-04-15T01:58:39.792Z,32.10
2017-04-15T01:59:39.112Z,30.08
2017-04-15T02:00:38.444Z,30.37
2017-04-15T02:01:37.736Z,32.45
2017-04-15T02:02:37.035Z,29.15
2017-04-15T02:03:36.349Z,30.90
2017-04-15T02:04:36.395Z,28.50
2017-04-15T02:05:35.685Z,32.33
2017-04-15T02:06:35.033Z,31.15
2017-04-15T02:07:35.044Z,29.18
2017-04-15T02:08:34.426Z,29.43
2017-04-15T02:09:34.911Z,31.90
2017-04-15T02:10:34.215Z,32.03
2017-04-15T02:11:33.488Z,31.93
2017-04-15T02:12:32.824Z,31.42
2017-04-15T02:13:32.116Z,29.67
2017-04-15T02:14:31.479Z,33.17
2017-04-15T02:15:30.876Z,33.53
2017-04-15T02:16:30.202Z,32.05
2017-04-15T02:17:29.511Z,31.12
2017-04-15T02:18:28.807Z,28.35
2017-04-15T02:19:28.111Z,33.33
2017-04-15T02:20:27.459Z,31.00
2017-04-15T02:21:26.753Z,39.83
2017-04-15T02:22:26.045Z,33.38
2017-04-15T02:23:25.452Z,34.42
2017-04-15T02:24:24.749Z,33.05
2017-04-15T02:25:24.107Z,33.80
2017-04-15T02:26:23.458Z,34.40
2017-04-15T02:27:22.756Z,40.38
2017-04-15T02:28:22.088Z,35.08
2017-04-15T02:29:21.366Z,35.45
2017-04-15T02:30:20.674Z,37.13
2017-04-15T02:31:19.935Z,31.85
2017-04-15T02:32:19.223Z,39.05
2017-04-15T02:33:18.496Z,36.18
2017-04-15T02:34:17.797Z,38.98
2017-04-15T02:35:17.124Z,32.98
2017-04-15T02:36:16.495Z,38.28
2017-04-15T02:37:15.813Z,38.55
2017-04-15T02:38:15.092Z,39.45
2017-04-15T02:39:14.411Z,36.22
2017-04-15T02:40:13.738Z,39.63
2017-04-15T02:41:13.040Z,39.85
2017-04-15T02:42:12.433Z,37.43
2017-04-15T02:43:12.425Z,42.32
2017-04-15T02:44:11.688Z,41.22
2017-04-15T02:45:10.966Z,43.48
2017-04-15T02:46:10.236Z,39.73
2017-04-15T02:47:09.538Z,41.05
2017-04-15T02:48:08.856Z,45.28
2017-04-15T02:49:08.181Z,42.48
2017-04-15T02:50:07.473Z,46.80
2017-04-15T02:51:06.790Z,45.05
2017-04-15T02:52:06.099Z,45.55
2017-04-15T02:53:05.391Z,43.07
2017-04-15T02:54:04.654Z,44.83
2017-04-15T02:55:03.922Z,47.77
2017-04-15T02:56:03.244Z,48.38
2017-04-15T02:57:02.525Z,44.70
2017-04-15T02:58:01.815Z,47.63
2017-04-15T02:59:01.143Z,52.47
2017-04-15T03:00:00.404Z,54.00
2017-04-15T03:00:59.776Z,47.58
2017-04-15T03:01:59.090Z,49.20
2017-04-15T03:02:58.426Z,55.98
2017-04-15T03:03:57.703Z,49.03
2017-04-15T03:04:57.033Z,51.02
2017-04-15T03:05:56.335Z,51.33
2017-04-15T03:06:55.623Z,49.90
2017-04-15T03:07:54.887Z,52.20
2017-04-15T03:08:54.909Z,51.15
2017-04-15T03:09:54.266Z,53.87
2017-04-15T03:10:53.548Z,52.47
2017-04-15T03:11:52.831Z,53.40
2017-04-15T03:12:52.154Z,52.12
2017-04-15T03:13:51.454Z,55.42
2017-04-15T03:14:50.765Z,58.08
2017-04-15T03:15:50.080Z,59.08
2017-04-15T03:16:49.344Z,57.92
2017-04-15T03:17:48.673Z,57.37
2017-04-15T03:18:47.995Z,54.57
2017-04-15T03:19:47.264Z,55.02
2017-04-15T03:20:46.586Z,58.98
2017-04-15T03:21:45.835Z,61.52
2017-04-15T03:22:45.127Z,58.98
2017-04-15T03:23:44.452Z,56.30
2017-04-15T03:24:44.457Z,59.02
2017-04-15T03:25:44.938Z,61.18
2017-04-15T03:26:44.245Z,54.93
2017-04-15T03:27:43.486Z,58.75
2017-04-15T03:28:42.822Z,61.32
2017-04-15T03:29:42.135Z,52.90
2017-04-15T03:30:42.171Z,60.35
2017-04-15T03:31:41.475Z,62.98
2017-04-15T03:32:40.722Z,60.38
2017-04-15T03:33:40.018Z,57.38
2017-04-15T03:34:39.335Z,59.05
2017-04-15T03:35:38.599Z,58.73
2017-04-15T03:36:37.930Z,56.00
2017-04-15T03:37:37.202Z,59.17
2017-04-15T03:38:36.482Z,57.77
2017-04-15T03:39:35.768Z,54.35
2017-04-15T03:40:35.050Z,56.90
2017-04-15T03:41:34.337Z,57.50
2017-04-15T03:42:33.599Z,59.53
2017-04-15T03:43:33.118Z,59.68
2017-04-15T03:44:32.489Z,55.65
2017-04-15T03:45:31.803Z,61.33
2017-04-15T03:46:31.132Z,60.88
2017-04-15T03:47:30.441Z,60.20
2017-04-15T03:48:29.756Z,59.63
2017-04-15T03:49:29.783Z,61.95
2017-04-15T03:50:29.775Z,60.98
2017-04-15T03:51:29.071Z,59.38
2017-04-15T03:52:29.056Z,58.80
2017-04-15T03:53:28.323Z,64.68
2017-04-15T03:54:27.644Z,64.53
2017-04-15T03:55:26.889Z,67.58
2017-04-15T03:56:26.157Z,62.82
2017-04-15T03:57:25.473Z,59.92
2017-04-15T03:58:24.744Z,64.20
2017-04-15T03:59:24.007Z,61.20
2017-04-15T04:00:24.075Z,61.72
2017-04-15T04:01:23.693Z,64.63
2017-04-15T04:02:22.978Z,55.63
2017-04-15T04:03:22.312Z,60.05
2017-04-15T04:04:21.808Z,59.48
2017-04-15T04:05:21.097Z,72.18
2017-04-15T04:06:20.433Z,58.98
2017-04-15T04:07:19.750Z,54.08
2017-04-15T04:08:19.807Z,64.15
2017-04-15T04:09:19.112Z,58.42
2017-04-15T04:10:18.413Z,63.07
2017-04-15T04:11:17.678Z,62.88
2017-04-15T04:12:17.011Z,64.83
2017-04-15T04:13:16.302Z,59.98
2017-04-15T04:14:15.587Z,62.70
2017-04-15T04:15:14.864Z,58.37
2017-04-15T04:16:14.139Z,64.95
2017-04-15T04:17:13.445Z,58.72
2017-04-15T04:18:12.717Z,63.67
2017-04-15T04:19:11.984Z,57.02
2017-04-15T04:20:11.261Z,64.00
2017-04-15T04:21:10.553Z,60.93
2017-04-15T04:22:09.847Z,61.17
2017-04-15T04:23:09.104Z,54.55
2017-04-15T04:24:08.444Z,58.48
2017-04-15T04:25:07.723Z,56.22
2017-04-15T04:26:07.005Z,57.13
2017-04-15T04:27:06.289Z,55.60
2017-04-15T04:28:05.541Z,53.53
2017-04-15T04:29:04.821Z,58.47
2017-04-15T04:30:04.102Z,58.03
2017-04-15T04:31:03.410Z,58.18
2017-04-15T04:32:02.737Z,65.23
2017-04-15T04:33:02.002Z,55.43
2017-04-15T04:34:01.279Z,58.78
2017-04-15T04:35:00.622Z,57.27
2017-04-15T04:35:59.951Z,63.62
2017-04-15T04:36:59.282Z,69.65
2017-04-15T04:37:58.541Z,62.95
2017-04-15T04:38:57.827Z,64.20
2017-04-15T04:39:57.112Z,61.65
2017-04-15T04:40:56.415Z,69.32
2017-04-15T04:41:55.708Z,57.58
2017-04-15T04:42:55.022Z,57.40
2017-04-15T04:43:55.125Z,62.85
2017-04-15T04:44:54.399Z,57.43
2017-04-15T04:45:53.649Z,55.60
2017-04-15T04:46:52.948Z,58.37
2017-04-15T04:47:52.259Z,60.95
2017-04-15T04:48:51.806Z,54.63
2017-04-15T04:49:51.119Z,61.52
2017-04-15T04:50:50.471Z,58.32
2017-04-15T04:51:49.762Z,61.27
2017-04-15T04:52:49.099Z,63.55
2017-04-15T04:53:48.367Z,64.30
2017-04-15T04:54:47.625Z,63.33
2017-04-15T04:55:46.872Z,54.83
2017-04-15T04:56:46.202Z,57.63
2017-04-15T04:57:45.493Z,61.63
2017-04-15T04:58:44.835Z,57.27
2017-04-15T04:59:44.130Z,57.13
2017-04-15T05:00:43.548Z,58.28
2017-04-15T05:01:42.857Z,60.57
2017-04-15T05:02:42.172Z,59.25
2017-04-15T05:03:41.490Z,56.22
2017-04-15T05:04:40.758Z,55.73
2017-04-15T05:05:40.037Z,59.48
2017-04-15T05:06:39.319Z,63.20
2017-04-15T05:07:38.617Z,61.32
2017-04-15T05:08:37.875Z,56.92
2017-04-15T05:09:37.164Z,59.37
2017-04-15T05:10:37.141Z,57.58
2017-04-15T05:11:36.503Z,61.05
2017-04-15T05:12:35.834Z,57.92
2017-04-15T05:13:35.115Z,59.10
2017-04-15T05:14:34.408Z,59.73
2017-04-15T05:15:33.694Z,63.35
2017-04-15T05:16:32.978Z,57.80
2017-04-15T05:17:32.942Z,55.33
2017-04-15T05:18:32.219Z,58.97
2017-04-15T05:19:31.889Z,63.10
2017-04-15T05:20:31.161Z,60.28
2017-04-15T05:21:30.417Z,61.50
2017-04-15T05:22:29.670Z,58.78
2017-04-15T05:23:28.975Z,59.53
2017-04-15T05:24:28.276Z,59.73
2017-04-15T05:25:27.564Z,57.95
2017-04-15T05:26:26.914Z,62.47
2017-04-15T05:27:26.243Z,58.87
2017-04-15T05:28:25.552Z,63.23
2017-04-15T05:29:24.890Z,63.63
2017-04-15T05:30:24.179Z,61.33
2017-04-15T05:31:23.504Z,57.47
2017-04-15T05:32:22.858Z,58.98
2017-04-15T05:33:22.148Z,63.68
2017-04-15T05:34:21.414Z,64.30
2017-04-15T05:35:20.750Z,61.73
2017-04-15T05:36:20.795Z,65.82
2017-04-15T05:37:20.100Z,63.13
2017-04-15T05:38:19.421Z,60.18
2017-04-15T05:39:18.742Z,54.98
2017-04-15T05:40:18.079Z,57.67
2017-04-15T05:41:17.392Z,59.98
2017-04-15T05:42:16.697Z,61.98
2017-04-15T05:43:16.724Z,60.15
2017-04-15T05:44:16.066Z,52.97
2017-04-15T05:45:15.380Z,61.73
2017-04-15T05:46:15.041Z,63.10
2017-04-15T05:47:14.629Z,61.40
2017-04-15T05:48:14.383Z,61.68
2017-04-15T05:49:14.441Z,59.88
2017-04-15T05:50:13.772Z,59.45
2017-04-15T05:51:13.029Z,68.50
2017-04-15T05:52:12.317Z,63.27
2017-04-15T05:53:11.604Z,64.32
2017-04-15T05:54:10.889Z,68.75
2017-04-15T05:55:10.151Z,62.02
2017-04-15T05:56:09.416Z,61.95
2017-04-15T05:57:09.423Z,53.83
2017-04-15T05:58:09.793Z,62.05
2017-04-15T05:59:09.066Z,65.17
2017-04-15T06:00:08.355Z,58.37
2017-04-15T06:01:07.621Z,62.00
2017-04-15T06:02:06.926Z,59.53
2017-04-15T06:03:06.424Z,59.58
2017-04-15T06:04:05.740Z,57.55
2017-04-15T06:05:05.009Z,59.07
2017-04-15T06:06:04.291Z,53.27
2017-04-15T06:07:03.567Z,61.30
2017-04-15T06:08:02.886Z,63.63
2017-04-15T06:09:02.218Z,61.03
2017-04-15T06:10:01.589Z,53.72
2017-04-15T06:11:00.847Z,60.35
2017-04-15T06:12:00.159Z,61.02
2017-04-15T06:12:59.401Z,57.28
2017-04-15T06:13:59.476Z,56.43
2017-04-15T06:14:58.777Z,55.10
2017-04-15T06:15:58.043Z,52.97
2017-04-15T06:16:57.288Z,57.67
2017-04-15T06:17:56.607Z,56.85
2017-04-15T06:18:55.943Z,50.30
2017-04-15T06:19:55.432Z,54.20
2017-04-15T06:20:54.753Z,54.30
2017-04-15T06:21:54.046Z,58.60
2017-04-15T06:22:53.316Z,61.80
2017-04-15T06:23:52.870Z,54.55
2017-04-15T06:24:52.222Z,55.38
2017-04-15T06:25:51.539Z,56.07
2017-04-15T06:26:50.803Z,48.02
2017-04-15T06:27:50.092Z,51.68
2017-04-15T06:28:49.436Z,45.38
2017-04-15T06:29:48.731Z,45.63
2017-04-15T06:30:48.135Z,50.80
2017-04-15T06:31:47.407Z,45.43
2017-04-15T06:32:46.750Z,48.25
2017-04-15T06:33:46.085Z,49.18
2017-04-15T06:34:45.390Z,44.90
2017-04-15T06:35:44.738Z,48.40
2017-04-15T06:36:44.049Z,48.87
2017-04-15T06:37:43.363Z,45.92
2017-04-15T06:38:42.631Z,48.00
2017-04-15T06:39:41.993Z,43.97
2017-04-15T06:40:41.224Z,46.53
2017-04-15T06:41:40.516Z,43.77
2017-04-15T06:42:39.800Z,39.22
2017-04-15T06:43:39.098Z,40.55
2017-04-15T06:44:38.407Z,41.35
2017-04-15T06:45:38.444Z,41.50
2017-04-15T06:46:37.738Z,41.53
2017-04-15T06:47:37.125Z,38.07
2017-04-15T06:48:36.457Z,39.17
2017-04-15T06:49:35.864Z,40.27
2017-04-15T06:50:35.195Z,38.80
2017-04-15T06:51:34.457Z,36.57
2017-04-15T06:52:33.812Z,36.57
2017-04-15T06:53:33.175Z,37.20
2017-04-15T06:54:32.802Z,38.32
2017-04-15T06:55:32.119Z,36.20
2017-04-15T06:56:31.387Z,39.43
2017-04-15T06:57:31.422Z,31.33
2017-04-15T06:58:30.996Z,29.52
2017-04-15T06:59:30.260Z,32.37
2017-04-15T07:00:29.565Z,30.73
2017-04-15T07:01:29.581Z,30.98
2017-04-15T07:02:28.943Z,29.07
2017-04-15T07:03:28.636Z,29.78
2017-04-15T07:04:27.972Z,30.73
2017-04-15T07:05:27.401Z,26.45
2017-04-15T07:06:26.753Z,27.38
2017-04-15T07:07:27.546Z,29.73
2017-04-15T07:08:27.355Z,28.33
2017-04-15T07:09:27.101Z,29.52
2017-04-15T07:10:26.374Z,27.65
2017-04-15T07:11:26.109Z,25.48
2017-04-15T07:12:25.538Z,29.50
2017-04-15T07:13:24.915Z,24.53
2017-04-15T07:14:24.186Z,24.93
2017-04-15T07:15:23.533Z,25.35
2017-04-15T07:16:22.812Z,24.70
2017-04-15T07:17:22.183Z,24.95
2017-04-15T07:18:21.550Z,25.45
2017-04-15T07:19:20.845Z,25.13
2017-04-15T07:20:20.361Z,21.88
2017-04-15T07:21:19.748Z,21.80
2017-04-15T07:22:19.220Z,21.02
2017-04-15T07:23:18.620Z,20.30
2017-04-15T07:24:18.025Z,21.27
2017-04-15T07:25:17.369Z,20.32
2017-04-15T07:26:16.729Z,20.23
2017-04-15T07:27:16.063Z,20.68
2017-04-15T07:28:15.339Z,20.00
2017-04-15T07:29:14.918Z,20.25
2017-04-15T07:30:14.150Z,18.88
2017-04-15T07:31:13.521Z,18.38
2017-04-15T07:32:12.860Z,17.18
2017-04-15T07:33:12.126Z,16.65
2017-04-15T07:34:11.434Z,18.38
2017-04-15T07:35:10.780Z,16.68
2017-04-15T07:36:10.099Z,18.35
2017-04-15T07:37:09.650Z,16.65
2017-04-15T07:38:08.929Z,15.50
2017-04-15T07:39:08.266Z,17.40
2017-04-15T07:40:08.187Z,15.93
2017-04-15T07:41:09.308Z,16.92
2017-04-15T07:42:08.571Z,17.93
2017-04-15T07:43:07.975Z,17.95
2017-04-15T07:44:07.903Z,16.20
2017-04-15T07:45:07.322Z,16.03
2017-04-15T07:46:07.467Z,16.20
2017-04-15T07:47:06.884Z,16.75
2017-04-15T07:48:06.248Z,16.18
2017-04-15T07:49:06.281Z,17.28
2017-04-15T07:50:05.572Z,16.78
2017-04-15T07:51:05.585Z,17.93
2017-04-15T07:52:04.961Z,17.65
2017-04-15T07:53:04.259Z,16.77
2017-04-15T07:54:03.585Z,18.38
2017-04-15T07:55:02.849Z,18.60
2017-04-15T07:56:02.208Z,20.48
2017-04-15T07:57:01.452Z,17.23
2017-04-15T07:58:00.720Z,17.70
2017-04-15T07:58:59.983Z,19.20
2017-04-15T07:59:59.228Z,19.22
2017-04-15T08:00:58.551Z,17.80
2017-04-15T08:01:57.838Z,17.87
2017-04-15T08:02:57.089Z,20.05
2017-04-15T08:03:56.359Z,18.42
2017-04-15T08:04:55.620Z,19.98
2017-04-15T08:05:55.179Z,20.35
2017-04-15T08:06:54.491Z,18.02
2017-04-15T08:07:53.732Z,19.87
2017-04-15T08:08:53.023Z,18.35
2017-04-15T08:09:52.330Z,19.75
2017-04-15T08:10:51.610Z,19.05
2017-04-15T08:11:50.935Z,19.23
2017-04-15T08:12:50.236Z,18.82
2017-04-15T08:13:49.505Z,17.38
2017-04-15T08:14:49.536Z,19.53
2017-04-15T08:15:48.829Z,20.88
2017-04-15T08:16:48.146Z,17.37
2017-04-15T08:17:47.434Z,21.00
2017-04-15T08:18:46.690Z,20.35
2017-04-15T08:19:45.976Z,18.25
2017-04-15T08:20:45.287Z,17.07
2017-04-15T08:21:44.598Z,20.38
2017-04-15T08:22:43.846Z,16.50
2017-04-15T08:23:43.121Z,18.45
2017-04-15T08:24:43.226Z,16.20
2017-04-15T08:25:42.491Z,17.27
2017-04-15T08:26:41.786Z,19.40
2017-04-15T08:27:41.084Z,18.35
2017-04-15T08:28:40.355Z,16.42
2017-04-15T08:29:39.599Z,14.22
2017-04-15T08:30:38.868Z,14.48
2017-04-15T08:31:38.170Z,15.78
2017-04-15T08:32:37.446Z,15.18
2017-04-15T08:33:36.713Z,13.73
2017-04-15T08:34:35.987Z,12.50
2017-04-15T08:35:35.315Z,12.80
2017-04-15T08:36:34.708Z,11.93
2017-04-15T08:37:34.025Z,12.63
2017-04-15T08:38:33.285Z,13.37
2017-04-15T08:39:33.696Z,13.40
2017-04-15T08:40:32.969Z,13.18
2017-04-15T08:41:32.284Z,12.17
2017-04-15T08:42:31.620Z,12.72
2017-04-15T08:43:30.911Z,14.10
2017-04-15T08:44:30.998Z,11.38
2017-04-15T08:45:30.284Z,13.25
2017-04-15T08:46:29.951Z,13.48
2017-04-15T08:47:29.305Z,12.15
2017-04-15T08:48:29.357Z,11.37
2017-04-15T08:49:28.706Z,11.23
2017-04-15T08:50:28.024Z,12.60
2017-04-15T08:51:27.485Z,10.92
2017-04-15T08:52:26.837Z,14.15
2017-04-15T08:53:26.194Z,13.43
2017-04-15T08:54:25.520Z,10.92
2017-04-15T08:55:24.856Z,11.58
2017-04-15T08:56:24.145Z,13.80
2017-04-15T08:57:24.084Z,12.50
2017-04-15T08:58:23.409Z,13.00
2017-04-15T08:59:22.713Z,12.35
2017-04-15T09:00:22.809Z,14.45
2017-04-15T09:01:22.121Z,11.58
2017-04-15T09:02:21.528Z,14.83
2017-04-15T09:03:20.820Z,10.80
2017-04-15T09:04:20.252Z,6.32
2017-04-15T09:05:19.548Z,7.05
2017-04-15T09:06:18.805Z,6.32
2017-04-15T09:07:18.123Z,6.33
2017-04-15T09:08:17.439Z,7.53
2017-04-15T09:09:16.739Z,7.98
2017-04-15T09:10:16.027Z,7.37
2017-04-15T09:11:15.366Z,6.65
2017-04-15T09:12:21.341Z,9.35
2017-04-15T09:13:20.860Z,8.35
2017-04-15T09:14:20.179Z,6.73
2017-04-15T09:15:19.465Z,9.75
2017-04-15T09:16:18.789Z,6.60
2017-04-15T09:17:18.126Z,9.90
2017-04-15T09:18:18.150Z,7.78
2017-04-15T09:19:17.522Z,10.45
2017-04-15T09:20:17.632Z,7.62
2017-04-15T09:21:17.627Z,8.18
2017-04-15T09:22:16.993Z,10.08
2017-04-15T09:23:16.349Z,8.37
2017-04-15T09:24:15.730Z,7.30
2017-04-15T09:25:15.058Z,9.08
2017-04-15T09:26:14.408Z,5.52
2017-04-15T09:27:13.750Z,8.60
2017-04-15T09:28:13.082Z,8.60
2017-04-15T09:29:12.318Z,12.53
2017-04-15T09:30:11.617Z,4.57
2017-04-15T09:31:10.998Z,3.52
2017-04-15T09:32:10.320Z,7.55
2017-04-15T09:33:09.651Z,4.13
2017-04-15T09:34:09.035Z,4.68
2017-04-15T09:35:08.389Z,5.12
2017-04-15T09:36:07.690Z,4.00
2017-04-15T09:37:07.014Z,3.88
2017-04-15T09:38:06.328Z,4.25
2017-04-15T09:39:06.360Z,4.60
2017-04-15T09:40:05.666Z,6.82
2017-04-15T09:41:05.151Z,5.95
2017-04-15T09:42:04.641Z,5.22
2017-04-15T09:43:04.155Z,8.38
2017-04-15T09:44:03.452Z,3.52
2017-04-15T09:45:02.829Z,4.40
2017-04-15T09:46:02.153Z,4.25
2017-04-15T09:47:01.510Z,3.02
2017-04-15T09:48:00.937Z,3.80
2017-04-15T09:49:00.422Z,2.62
2017-04-15T09:49:59.782Z,3.00
2017-04-15T09:51:23.194Z,4.33
2017-04-15T09:52:22.952Z,3.18
2017-04-15T09:53:22.269Z,3.92
2017-04-15T09:54:21.556Z,3.07
2017-04-15T09:55:20.859Z,1.97
2017-04-15T09:56:20.149Z,2.48
2017-04-15T09:57:19.497Z,3.37
2017-04-15T09:58:18.973Z,4.48
2017-04-15T09:59:18.353Z,4.15
2017-04-15T10:00:17.722Z,2.33
2017-04-15T10:01:17.047Z,6.12
2017-04-15T10:02:16.355Z,9.28
2017-04-15T10:03:15.739Z,6.42
2017-04-15T10:04:15.049Z,4.92
2017-04-15T10:05:14.443Z,5.98
2017-04-15T10:06:13.791Z,5.18
2017-04-15T10:07:13.107Z,4.75
2017-04-15T10:08:12.436Z,11.07
2017-04-15T10:09:12.510Z,3.70
2017-04-15T10:10:11.861Z,7.62
2017-04-15T10:11:11.399Z,7.38
2017-04-15T10:12:10.729Z,5.82
2017-04-15T10:13:10.143Z,4.00
2017-04-15T10:14:10.184Z,8.95
2017-04-15T10:15:09.497Z,4.78
2017-04-15T10:16:08.857Z,2.30
2017-04-15T10:17:08.181Z,4.15
2017-04-15T10:18:08.725Z,3.42
2017-04-15T10:19:08.218Z,4.48
2017-04-15T10:20:07.505Z,3.97
2017-04-15T10:21:06.872Z,4.48
2017-04-15T10:22:06.170Z,2.73
2017-04-15T10:23:05.566Z,4.40
2017-04-15T10:24:04.894Z,4.17
2017-04-15T10:25:04.298Z,5.18
2017-04-15T10:26:04.121Z,10.28
2017-04-15T10:27:03.466Z,4.62
2017-04-15T10:28:02.796Z,4.82
2017-04-15T10:29:02.134Z,7.25
2017-04-15T10:30:01.502Z,5.73
2017-04-15T10:31:02.807Z,6.03
2017-04-15T10:32:03.226Z,7.52
2017-04-15T10:33:02.826Z,2.72
2017-04-15T10:34:02.296Z,2.82
2017-04-15T10:35:02.018Z,2.92
2017-04-15T10:36:01.430Z,6.38
2017-04-15T10:37:00.813Z,3.48
2017-04-15T10:38:00.131Z,5.02
2017-04-15T10:39:00.251Z,4.40
2017-04-15T10:39:59.597Z,4.33
2017-04-15T10:40:58.924Z,3.17
2017-04-15T10:41:59.035Z,5.32
2017-04-15T10:42:58.383Z,3.15
2017-04-15T10:43:57.779Z,3.30
2017-04-15T10:44:57.121Z,1.93
2017-04-15T10:45:56.465Z,4.87
2017-04-15T10:46:55.858Z,3.03
2017-04-15T10:47:55.286Z,3.60
2017-04-15T10:48:55.028Z,2.02
2017-04-15T10:49:54.546Z,2.32
2017-04-15T10:50:53.968Z,5.47
2017-04-15T10:51:53.283Z,4.05
2017-04-15T10:52:53.619Z,4.77
2017-04-15T10:53:52.963Z,10.68
2017-04-15T10:54:52.385Z,3.53
2017-04-15T10:55:52.637Z,5.80
2017-04-15T10:56:52.575Z,5.90
2017-04-15T10:57:51.903Z,5.60
2017-04-15T10:58:51.258Z,7.07
2017-04-15T10:59:50.827Z,7.53
2017-04-15T11:00:50.422Z,7.48
2017-04-15T11:01:49.833Z,9.55
2017-04-15T11:02:49.443Z,11.22
2017-04-15T11:03:50.301Z,8.72
2017-04-15T11:04:49.663Z,4.27
2017-04-15T11:05:49.046Z,6.38
2017-04-15T11:06:48.392Z,5.83
2017-04-15T11:07:47.708Z,10.60
2017-04-15T11:08:47.073Z,9.73
2017-04-15T11:09:46.914Z,8.02
2017-04-15T11:10:46.292Z,5.23
2017-04-15T11:11:45.732Z,5.12
2017-04-15T11:12:45.243Z,6.28
2017-04-15T11:13:44.772Z,5.55
2017-04-15T11:14:44.162Z,6.75
2017-04-15T11:15:43.589Z,2.80
2017-04-15T11:16:42.914Z,3.20
2017-04-15T11:17:43.224Z,8.05
2017-04-15T11:18:42.752Z,4.35
2017-04-15T11:19:42.174Z,3.15
2017-04-15T11:20:41.657Z,10.53
2017-04-15T11:21:41.118Z,8.23
2017-04-15T11:22:40.405Z,8.00
2017-04-15T11:23:39.786Z,16.73
2017-04-15T11:24:39.106Z,8.78
2017-04-15T11:25:38.468Z,8.45
2017-04-15T11:26:38.576Z,5.42
2017-04-15T11:27:37.877Z,9.05
2017-04-15T11:28:37.153Z,3.75
2017-04-15T11:29:36.493Z,3.92
2017-04-15T11:30:35.802Z,8.27
2017-04-15T11:31:35.144Z,7.05
2017-04-15T11:32:34.478Z,6.40
2017-04-15T11:33:33.834Z,4.22
2017-04-15T11:34:33.273Z,4.43
2017-04-15T11:35:32.767Z,4.72
2017-04-15T11:36:34.170Z,2.27
2017-04-15T11:37:33.518Z,6.18
2017-04-15T11:38:33.070Z,4.53
2017-04-15T11:39:32.537Z,6.25
2017-04-15T11:40:31.826Z,5.23
2017-04-15T11:41:36.895Z,9.27
2017-04-15T11:42:36.348Z,12.52
2017-04-15T11:43:35.739Z,4.73
2017-04-15T11:44:35.191Z,4.82
2017-04-15T11:45:34.674Z,1.35
2017-04-15T11:46:34.010Z,5.37
2017-04-15T11:47:33.359Z,10.77
2017-04-15T11:48:33.408Z,3.80
2017-04-15T11:49:32.755Z,3.95
2017-04-15T11:50:33.916Z,5.43
2017-04-15T11:51:33.168Z,2.63
2017-04-15T11:52:33.212Z,5.43
2017-04-15T11:53:32.539Z,6.23
2017-04-15T11:54:31.807Z,6.30
2017-04-15T11:55:31.118Z,6.52
2017-04-15T11:56:30.403Z,5.40
2017-04-15T11:57:29.794Z,7.35
2017-04-15T11:58:29.032Z,3.17
2017-04-15T11:59:28.313Z,8.20
2017-04-15T12:00:27.599Z,7.72
2017-04-15T12:01:26.946Z,5.03
2017-04-15T12:02:26.243Z,2.68
2017-04-15T12:03:25.514Z,8.10
2017-04-15T12:04:24.809Z,6.17
2017-04-15T12:05:24.218Z,7.73
2017-04-15T12:06:23.925Z,4.63
2017-04-15T12:07:24.039Z,5.57
2017-04-15T12:08:23.320Z,3.18
2017-04-15T12:09:22.578Z,7.55
2017-04-15T12:10:21.878Z,5.82
2017-04-15T12:11:21.154Z,3.65
2017-04-15T12:12:20.623Z,6.25
2017-04-15T12:13:19.958Z,5.92
2017-04-15T12:14:19.241Z,7.92
2017-04-15T12:15:18.552Z,6.13
2017-04-15T12:16:17.804Z,4.63
2017-04-15T12:17:17.127Z,8.67
2017-04-15T12:18:16.390Z,6.53
2017-04-15T12:19:15.718Z,5.20
2017-04-15T12:20:15.066Z,2.23
2017-04-15T12:21:14.366Z,7.20
2017-04-15T12:22:13.721Z,5.57
2017-04-15T12:23:13.224Z,4.40
2017-04-15T12:24:12.996Z,7.05
2017-04-15T12:25:12.379Z,4.58
2017-04-15T12:26:11.705Z,3.05
2017-04-15T12:27:11.733Z,2.40
2017-04-15T12:28:10.996Z,5.88
2017-04-15T12:29:10.386Z,5.28
2017-04-15T12:30:10.600Z,3.38
2017-04-15T12:31:09.921Z,8.07
2017-04-15T12:32:09.222Z,1.90
2017-04-15T12:33:08.592Z,6.98
2017-04-15T12:34:07.877Z,4.52
2017-04-15T12:35:07.930Z,4.47
2017-04-15T12:36:07.274Z,9.03
2017-04-15T12:37:06.600Z,4.85
2017-04-15T12:38:05.892Z,6.53
2017-04-15T12:39:05.518Z,4.22
2017-04-15T12:40:04.837Z,5.88
2017-04-15T12:41:04.233Z,4.42
2017-04-15T12:42:03.459Z,4.18
2017-04-15T12:43:02.769Z,4.97
2017-04-15T12:44:02.059Z,10.63
2017-04-15T12:45:01.331Z,7.12
2017-04-15T12:46:02.750Z,6.30
2017-04-15T12:47:02.001Z,5.82
2017-04-15T12:48:01.377Z,3.25
2017-04-15T12:49:01.418Z,9.82
2017-04-15T12:50:00.683Z,3.28
2017-04-15T12:50:59.988Z,6.20
2017-04-15T12:51:59.268Z,6.15
2017-04-15T12:52:58.527Z,6.85
2017-04-15T12:53:57.767Z,6.43
2017-04-15T12:54:59.288Z,9.67
2017-04-15T12:55:59.677Z,7.77
2017-04-15T12:56:58.991Z,6.75
2017-04-15T12:57:58.258Z,5.70
2017-04-15T12:58:57.540Z,9.15
2017-04-15T12:59:56.845Z,11.25